Terminal Aerodrome Forecast
Issued by NWS Twin Cities, MN

Home | Current Version | Previous Version | Graphics & Text | Print | Product List | Glossary On
Versions: 1 2 3 4 5 6 7 8 9 10 11 12 13 14 15 16 17 18 19 20 21 22 23 24 25 26
551
FTUS43 KMPX 150520
TAFMSP
TAF
KMSP 150520Z 1506/1612 01015G24KT P6SM -DZ SCT008 OVC012
     FM151300 32014G20KT P6SM BKN020 OVC050
     FM151600 31010KT P6SM SCT025 BKN050
     FM152000 28009KT P6SM SCT050 BKN100
     FM160100 24005KT P6SM SCT250=

USA.gov is the U.S. government's official web portal to all federal, state and local government web resources and services.